Time;durP1;ratioP1;P1;durP2;ratioP2;P2;SDS_P1;SDS_P2;PMS_P1;PMS_P2;Temp;Humidity;BMP_temperature;BMP_pressure;BME280_temperature;BME280_humidity;BME280_pressure;Samples;Min_cycle;Max_cycle;Signal;HPM_P1;HPM_P2
2021/09/13 00:01:50;;;;;;;0.10;0.10;;;16.90;99.90;;;;;;5055834;28;20074;-75
2021/09/13 00:04:16;;;;;;;0.10;0.10;;;16.80;99.90;;;;;;5073751;28;20024;-75
2021/09/13 00:06:41;;;;;;;0.10;0.10;;;16.90;99.90;;;;;;5039114;28;20074;-75
2021/09/13 00:09:07;;;;;;;0.20;0.20;;;16.70;99.90;;;;;;5039208;28;20025;-75
2021/09/13 00:11:33;;;;;;;0.10;0.10;;;16.60;99.90;;;;;;5073752;28;20028;-75
2021/09/13 00:13:59;;;;;;;0.10;0.10;;;16.70;99.90;;;;;;5055833;28;20107;-75
2021/09/13 00:16:24;;;;;;;0.10;0.10;;;16.70;99.90;;;;;;5073379;28;20047;-75
2021/09/13 00:18:50;;;;;;;0.20;0.20;;;16.60;99.90;;;;;;5073473;28;20387;-75
2021/09/13 00:21:16;;;;;;;0.10;0.10;;;16.60;99.90;;;;;;5073382;28;20066;-75
2021/09/13 00:23:42;;;;;;;0.10;0.10;;;16.60;99.90;;;;;;5073479;28;20028;-75
2021/09/13 00:26:07;;;;;;;0.10;0.10;;;16.50;99.90;;;;;;5073208;28;20467;-75
2021/09/13 00:28:33;;;;;;;0.10;0.10;;;16.40;99.90;;;;;;5055378;28;20050;-75
2021/09/13 00:30:59;;;;;;;0.25;0.25;;;16.30;99.90;;;;;;5055342;28;20506;-75
2021/09/13 00:33:24;;;;;;;0.20;0.20;;;16.30;99.90;;;;;;5038700;28;20032;-75
2021/09/13 00:35:50;;;;;;;0.10;0.10;;;16.10;99.90;;;;;;5055222;28;20027;-75
2021/09/13 00:38:16;;;;;;;0.10;0.10;;;16.00;99.90;;;;;;5055053;28;20031;-75
2021/09/13 00:40:42;;;;;;;0.20;0.20;;;15.90;99.90;;;;;;5055293;28;20052;-75
2021/09/13 00:43:07;;;;;;;0.20;0.20;;;16.00;99.90;;;;;;5055082;28;20024;-75
2021/09/13 00:45:33;;;;;;;0.15;0.15;;;16.10;99.90;;;;;;5055154;28;20426;-75
2021/09/13 00:47:59;;;;;;;0.20;0.20;;;16.20;99.90;;;;;;5072893;28;20033;-75
2021/09/13 00:50:25;;;;;;;0.25;0.25;;;16.10;99.90;;;;;;5038303;28;20032;-75
2021/09/13 00:52:52;;;;;;;0.75;0.40;;;16.10;99.90;;;;;;5055021;28;20069;-75
2021/09/13 00:55:19;;;;;;;0.10;0.10;;;16.10;99.90;;;;;;5071453;28;20029;-75
2021/09/13 00:57:46;;;;;;;0.10;0.10;;;16.10;99.90;;;;;;5071455;28;20029;-75
2021/09/13 01:00:12;;;;;;;0.10;0.10;;;16.10;99.90;;;;;;5072495;28;20064;-75
2021/09/13 01:02:38;;;;;;;0.10;0.10;;;16.20;99.90;;;;;;5054797;28;20028;-75
2021/09/13 01:05:05;;;;;;;0.77;0.77;;;16.20;99.90;;;;;;5072479;28;20024;-75
2021/09/13 01:07:31;;;;;;;0.10;0.10;;;16.00;99.90;;;;;;5038065;28;20483;-75
2021/09/13 01:09:58;;;;;;;0.10;0.10;;;15.90;99.90;;;;;;5054345;28;20032;-75
2021/09/13 01:12:24;;;;;;;0.10;0.10;;;16.00;99.90;;;;;;5072551;28;20068;-75
2021/09/13 01:14:50;;;;;;;0.10;0.10;;;16.00;99.90;;;;;;5054174;28;20029;-75
2021/09/13 01:17:16;;;;;;;0.10;0.10;;;16.00;99.90;;;;;;5037930;28;20033;-75
2021/09/13 01:19:42;;;;;;;0.10;0.10;;;16.00;99.90;;;;;;5072194;28;20058;-75
2021/09/13 01:22:11;;;;;;;0.13;0.13;;;15.90;99.90;;;;;;5054534;28;20025;-75
2021/09/13 01:24:36;;;;;;;0.20;0.20;;;15.80;99.90;;;;;;5072197;28;20074;-75
2021/09/13 01:27:05;;;;;;;0.20;0.20;;;16.00;99.90;;;;;;5072297;28;20024;-75
2021/09/13 01:29:31;;;;;;;0.20;0.20;;;16.10;99.90;;;;;;5054185;28;20024;-75
2021/09/13 01:31:58;;;;;;;0.20;0.20;;;16.10;99.90;;;;;;5054423;28;20028;-75
2021/09/13 01:34:24;;;;;;;0.10;0.10;;;16.20;99.90;;;;;;5037632;28;20476;-75
2021/09/13 01:36:50;;;;;;;0.10;0.10;;;16.30;99.90;;;;;;5054122;28;20020;-75
2021/09/13 01:39:16;;;;;;;0.20;0.20;;;16.40;99.90;;;;;;5054138;28;20020;-75
2021/09/13 01:41:43;;;;;;;0.20;0.20;;;16.30;99.90;;;;;;5054047;28;20396;-75
2021/09/13 01:44:10;;;;;;;0.10;0.10;;;16.40;99.90;;;;;;5072087;28;20025;-75
2021/09/13 01:46:37;;;;;;;0.20;0.20;;;16.20;99.90;;;;;;5071858;28;20104;-75
2021/09/13 01:49:05;;;;;;;0.10;0.10;;;16.00;99.90;;;;;;5072045;28;20024;-75
2021/09/13 01:51:31;;;;;;;0.20;0.20;;;15.90;99.90;;;;;;5037612;28;20048;-75
2021/09/13 01:53:56;;;;;;;0.10;0.10;;;15.90;99.90;;;;;;5071910;28;20427;-75
2021/09/13 01:56:22;;;;;;;0.10;0.10;;;15.90;99.90;;;;;;5071658;28;20025;-75
2021/09/13 01:58:48;;;;;;;0.10;0.10;;;15.90;99.90;;;;;;5053926;28;20078;-75
2021/09/13 02:01:13;;;;;;;0.10;0.10;;;15.90;99.90;;;;;;5071821;28;20036;-75
2021/09/13 02:03:39;;;;;;;0.10;0.10;;;16.00;99.90;;;;;;5054238;28;20372;-75
2021/09/13 02:06:05;;;;;;;0.10;0.10;;;16.00;99.90;;;;;;5053739;28;20426;-75
2021/09/13 02:08:31;;;;;;;0.10;0.10;;;16.00;99.90;;;;;;5071914;28;20070;-75
2021/09/13 02:10:57;;;;;;;0.20;0.20;;;15.80;99.90;;;;;;5071680;28;20074;-75
2021/09/13 02:13:23;;;;;;;0.20;0.20;;;15.90;99.90;;;;;;5071954;28;20103;-75
2021/09/13 02:15:49;;;;;;;0.10;0.10;;;16.00;99.90;;;;;;5071604;28;20116;-75
2021/09/13 02:18:15;;;;;;;0.10;0.10;;;15.80;99.90;;;;;;5053671;28;20032;-75
2021/09/13 02:20:40;;;;;;;0.10;0.10;;;15.70;99.90;;;;;;5053497;28;20082;-75
2021/09/13 02:23:06;;;;;;;0.10;0.10;;;15.50;99.90;;;;;;5075214;28;20035;-75
2021/09/13 02:25:32;;;;;;;0.20;0.20;;;15.40;99.90;;;;;;5057608;28;20051;-75
2021/09/13 02:27:58;;;;;;;0.17;0.17;;;15.30;99.90;;;;;;5075603;28;20104;-75
2021/09/13 02:30:24;;;;;;;0.28;0.28;;;15.30;99.90;;;;;;5057656;28;20033;-75
2021/09/13 02:32:49;;;;;;;0.10;0.10;;;15.30;99.90;;;;;;5057763;28;20394;-75
2021/09/13 02:35:15;;;;;;;0.10;0.10;;;15.20;99.90;;;;;;5075389;28;20388;-75
2021/09/13 02:37:41;;;;;;;0.10;0.10;;;15.30;99.90;;;;;;5075602;28;20020;-75
2021/09/13 02:40:08;;;;;;;0.10;0.10;;;15.20;99.90;;;;;;5075269;28;20027;-75
2021/09/13 02:42:34;;;;;;;0.10;0.10;;;15.20;99.90;;;;;;5075943;28;20035;-75
2021/09/13 02:45:00;;;;;;;0.20;0.20;;;15.20;99.90;;;;;;5057157;28;20249;-75
2021/09/13 02:47:26;;;;;;;0.10;0.10;;;15.30;99.90;;;;;;5075228;28;20021;-75
2021/09/13 02:49:52;;;;;;;0.10;0.10;;;15.30;99.90;;;;;;5057292;28;20029;-75
2021/09/13 02:52:17;;;;;;;0.15;0.15;;;15.40;99.90;;;;;;5057341;28;20032;-75
2021/09/13 02:54:43;;;;;;;0.20;0.20;;;15.50;99.90;;;;;;5056980;28;20037;-75
2021/09/13 02:57:09;;;;;;;0.15;0.15;;;15.60;99.90;;;;;;5040546;28;20028;-75
2021/09/13 02:59:34;;;;;;;0.10;0.10;;;15.70;99.90;;;;;;5074989;28;20028;-75
2021/09/13 03:02:00;;;;;;;0.10;0.10;;;15.80;99.90;;;;;;5075134;28;20082;-75
2021/09/13 03:04:26;;;;;;;0.20;0.20;;;15.80;99.90;;;;;;5074915;28;20051;-75
2021/09/13 03:06:52;;;;;;;0.17;0.17;;;15.80;99.90;;;;;;5074836;28;20070;-75
2021/09/13 03:09:18;;;;;;;0.15;0.15;;;15.80;99.90;;;;;;5057106;28;20023;-75
2021/09/13 03:11:44;;;;;;;0.05;0.05;;;15.80;99.90;;;;;;5056897;28;20028;-75
2021/09/13 03:14:10;;;;;;;0.10;0.10;;;15.80;99.90;;;;;;5056893;28;20025;-75
2021/09/13 03:16:36;;;;;;;0.10;0.10;;;15.80;99.90;;;;;;5056693;28;20029;-75
2021/09/13 03:19:02;;;;;;;1.65;1.55;;;15.90;99.90;;;;;;5056952;28;20033;-75
2021/09/13 03:21:27;;;;;;;0.10;0.10;;;15.80;99.90;;;;;;5074431;28;20067;-75
2021/09/13 03:23:53;;;;;;;0.20;0.20;;;15.80;99.90;;;;;;5074548;28;20024;-75
2021/09/13 03:26:19;;;;;;;0.10;0.10;;;15.90;99.90;;;;;;5074256;28;20027;-75
2021/09/13 03:28:45;;;;;;;0.10;0.10;;;15.80;99.90;;;;;;5056684;28;20155;-75
2021/09/13 03:31:11;;;;;;;0.10;0.10;;;15.90;99.90;;;;;;5056608;28;20373;-75
2021/09/13 03:33:36;;;;;;;0.20;0.20;;;15.80;99.90;;;;;;5074107;28;20035;-75
2021/09/13 03:36:03;;;;;;;0.10;0.10;;;15.80;99.90;;;;;;5056213;28;20031;-75
2021/09/13 03:38:28;;;;;;;0.20;0.20;;;15.80;99.90;;;;;;5056420;28;20139;-75
2021/09/13 03:40:54;;;;;;;0.10;0.10;;;15.80;99.90;;;;;;5056185;28;20111;-75
2021/09/13 03:43:20;;;;;;;0.10;0.10;;;15.80;99.90;;;;;;5056280;28;20032;-75
2021/09/13 03:45:46;;;;;;;0.10;0.10;;;15.70;99.90;;;;;;5074054;28;20021;-75
2021/09/13 03:48:11;;;;;;;0.10;0.10;;;15.60;99.90;;;;;;5056058;28;20115;-75
2021/09/13 03:50:37;;;;;;;0.30;0.30;;;15.40;99.90;;;;;;5056037;28;20029;-75
2021/09/13 03:53:03;;;;;;;0.10;0.10;;;15.40;99.90;;;;;;5056263;28;20029;-75
2021/09/13 03:55:29;;;;;;;0.20;0.20;;;15.40;99.90;;;;;;5073741;28;20020;-75
2021/09/13 03:57:55;;;;;;;0.10;0.10;;;15.40;99.90;;;;;;5073963;28;20036;-75
2021/09/13 04:00:21;;;;;;;0.10;0.10;;;15.40;99.90;;;;;;5073887;28;20036;-75
2021/09/13 04:02:48;;;;;;;0.20;0.20;;;15.60;99.90;;;;;;5074002;28;20020;-75
2021/09/13 04:05:20;;;;;;;0.10;0.10;;;15.70;99.90;;;;;;5039258;28;20047;-75
2021/09/13 04:08:11;;;;;;;0.10;0.10;;;15.70;99.90;;;;;;5039149;28;20103;-75
2021/09/13 04:13:00;;;;;;;0.10;0.10;;;15.90;99.90;;;;;;5055731;28;20063;-75
2021/09/13 04:15:26;;;;;;;0.20;0.20;;;15.90;99.90;;;;;;5073481;28;20025;-75
2021/09/13 04:17:51;;;;;;;0.10;0.10;;;16.00;99.90;;;;;;5055675;28;20420;-75
2021/09/13 04:20:17;;;;;;;0.10;0.10;;;15.90;99.90;;;;;;5073261;28;20506;-75
2021/09/13 04:22:43;;;;;;;0.20;0.20;;;15.80;99.90;;;;;;5055511;28;20025;-75
2021/09/13 04:25:09;;;;;;;0.10;0.10;;;15.60;99.90;;;;;;5073378;28;20025;-75
2021/09/13 04:27:35;;;;;;;0.10;0.10;;;15.50;99.90;;;;;;5073283;28;20023;-75
2021/09/13 04:30:00;;;;;;;0.20;0.20;;;15.40;99.90;;;;;;5055521;28;20031;-75
2021/09/13 04:32:26;;;;;;;0.10;0.10;;;15.40;99.90;;;;;;5073280;28;20036;-75
2021/09/13 04:34:52;;;;;;;0.10;0.10;;;15.40;99.90;;;;;;5073085;28;20034;-75
2021/09/13 04:37:17;;;;;;;0.10;0.10;;;15.40;99.90;;;;;;5073052;28;20035;-75
2021/09/13 04:39:43;;;;;;;0.10;0.10;;;15.40;99.90;;;;;;5073092;28;20035;-75
2021/09/13 04:42:09;;;;;;;0.10;0.10;;;15.40;99.90;;;;;;5073001;28;20023;-75
2021/09/13 04:44:35;;;;;;;0.13;0.13;;;15.30;99.90;;;;;;5072176;28;20020;-75
2021/09/13 04:47:01;;;;;;;0.10;0.10;;;15.20;99.90;;;;;;5072982;28;20499;-75
2021/09/13 04:49:26;;;;;;;0.10;0.10;;;15.10;99.90;;;;;;5072982;28;20025;-75
2021/09/13 04:51:52;;;;;;;0.20;0.20;;;15.00;99.90;;;;;;5054902;28;20056;-75
2021/09/13 04:54:18;;;;;;;0.10;0.10;;;15.00;99.90;;;;;;5073181;28;20104;-75
2021/09/13 04:56:44;;;;;;;0.13;0.13;;;15.10;99.90;;;;;;5054777;28;20037;-75
2021/09/13 04:59:10;;;;;;;0.10;0.10;;;15.30;99.90;;;;;;5038374;28;20048;-74
2021/09/13 05:01:37;;;;;;;0.10;0.10;;;15.30;99.90;;;;;;5072721;28;20085;-75
2021/09/13 05:04:03;;;;;;;0.40;0.40;;;15.30;99.90;;;;;;5071350;28;20074;-75
2021/09/13 05:06:30;;;;;;;4.95;0.43;;;15.40;99.90;;;;;;5072381;28;20024;-75
2021/09/13 05:08:55;;;;;;;0.10;0.10;;;15.40;99.90;;;;;;5054639;28;20498;-75
2021/09/13 05:11:21;;;;;;;0.10;0.10;;;15.50;99.90;;;;;;5072509;28;20067;-75
2021/09/13 05:13:47;;;;;;;0.20;0.20;;;15.40;99.90;;;;;;5072593;28;20395;-75
2021/09/13 05:16:13;;;;;;;0.13;0.13;;;15.40;99.90;;;;;;5037582;28;20036;-75
2021/09/13 05:18:39;;;;;;;0.20;0.20;;;15.30;99.90;;;;;;5053639;28;20024;-75
2021/09/13 05:21:05;;;;;;;0.10;0.10;;;15.40;99.90;;;;;;5078891;28;20109;-75
2021/09/13 05:23:31;;;;;;;0.10;0.10;;;15.50;99.90;;;;;;5061330;28;20020;-75
2021/09/13 05:25:57;;;;;;;0.20;0.20;;;15.50;99.90;;;;;;5092407;28;20021;-75
2021/09/13 05:28:23;;;;;;;0.20;0.20;;;15.60;99.90;;;;;;5062528;28;20024;-75
2021/09/13 05:30:49;;;;;;;0.10;0.10;;;15.50;99.90;;;;;;5072265;28;20021;-75
2021/09/13 05:33:16;;;;;;;0.10;0.10;;;15.50;99.90;;;;;;5071967;28;20111;-75
2021/09/13 05:35:42;;;;;;;0.10;0.10;;;15.50;99.90;;;;;;5055608;28;20037;-75
2021/09/13 05:38:09;;;;;;;0.32;0.32;;;15.60;99.90;;;;;;5074176;28;20380;-75
2021/09/13 05:40:35;;;;;;;0.45;0.40;;;15.50;99.90;;;;;;5074078;28;20055;-75
2021/09/13 05:43:04;;;;;;;0.82;0.82;;;15.30;99.90;;;;;;5074125;28;20039;-74
2021/09/13 05:45:30;;;;;;;0.30;0.30;;;15.00;99.90;;;;;;5074108;28;20016;-75
2021/09/13 05:47:55;;;;;;;0.77;0.73;;;15.00;99.90;;;;;;5063927;28;20490;-75
2021/09/13 05:50:21;;;;;;;0.15;0.15;;;15.20;99.90;;;;;;5072235;28;20025;-75
2021/09/13 05:52:47;;;;;;;0.10;0.10;;;15.30;99.90;;;;;;5055250;28;20047;-75
2021/09/13 05:55:13;;;;;;;0.20;0.20;;;15.30;99.90;;;;;;5055697;28;20111;-75
2021/09/13 05:57:39;;;;;;;0.38;0.32;;;15.40;99.90;;;;;;5062181;28;20032;-75
2021/09/13 06:00:06;;;;;;;0.10;0.10;;;15.60;99.90;;;;;;5071577;28;20116;-75
2021/09/13 06:02:32;;;;;;;1.65;1.23;;;15.70;99.90;;;;;;5072306;28;20086;-75
2021/09/13 06:04:58;;;;;;;0.65;0.65;;;15.70;99.90;;;;;;5071753;28;20033;-75
2021/09/13 06:07:24;;;;;;;1.00;1.00;;;15.70;99.90;;;;;;5072118;28;20025;-75
2021/09/13 06:09:50;;;;;;;0.57;0.22;;;15.70;99.90;;;;;;5089142;28;20020;-75
2021/09/13 06:12:16;;;;;;;0.10;0.10;;;15.80;99.90;;;;;;5091871;28;20019;-75
2021/09/13 06:14:43;;;;;;;0.10;0.10;;;15.80;99.90;;;;;;5057041;28;20498;-75
2021/09/13 06:17:10;;;;;;;0.10;0.10;;;16.00;99.90;;;;;;5056980;28;20062;-75
2021/09/13 06:19:35;;;;;;;0.10;0.10;;;16.20;99.90;;;;;;5091913;28;20433;-75
2021/09/13 06:22:02;;;;;;;0.10;0.10;;;16.30;99.90;;;;;;5091946;28;20016;-75
2021/09/13 06:24:28;;;;;;;2.03;1.75;;;16.30;99.90;;;;;;5053968;28;20403;-75
2021/09/13 06:26:53;;;;;;;0.10;0.10;;;16.40;99.90;;;;;;5052674;28;20277;-75
2021/09/13 06:29:19;;;;;;;0.10;0.10;;;16.40;99.90;;;;;;5067697;28;20028;-75
2021/09/13 06:31:46;;;;;;;0.63;0.63;;;16.40;99.90;;;;;;5068008;28;20585;-75
2021/09/13 06:34:15;;;;;;;0.10;0.10;;;16.60;99.90;;;;;;5050846;28;20103;-75
2021/09/13 06:36:43;;;;;;;0.10;0.10;;;16.60;99.90;;;;;;5050396;28;20033;-75
2021/09/13 06:39:09;;;;;;;0.10;0.10;;;16.70;99.90;;;;;;5069279;28;20490;-74
2021/09/13 06:41:35;;;;;;;0.10;0.10;;;16.80;99.90;;;;;;5052018;28;20025;-75
2021/09/13 06:44:01;;;;;;;0.10;0.10;;;17.00;99.90;;;;;;5052004;28;20361;-75
2021/09/13 06:46:50;;;;;;;0.13;0.13;;;17.00;99.90;;;;;;5053089;28;20032;-75
2021/09/13 06:49:13;;;;;;;0.10;0.10;;;17.10;99.90;;;;;;5070047;28;20056;-74
2021/09/13 06:51:38;;;;;;;0.10;0.10;;;17.30;99.90;;;;;;5035456;28;20029;-75
2021/09/13 06:54:04;;;;;;;1.30;1.25;;;17.30;99.90;;;;;;5070278;28;20044;-75
2021/09/13 06:56:30;;;;;;;0.10;0.10;;;17.50;99.90;;;;;;5069128;28;20016;-75
2021/09/13 06:58:56;;;;;;;0.05;0.05;;;17.50;99.90;;;;;;5034792;28;20029;-75
2021/09/13 07:01:22;;;;;;;0.10;0.10;;;17.60;99.90;;;;;;5051717;28;20021;-75
2021/09/13 07:03:49;;;;;;;0.05;0.05;;;17.70;99.90;;;;;;5052278;28;20313;-75
2021/09/13 07:06:15;;;;;;;0.10;0.10;;;17.70;99.90;;;;;;5069416;28;20023;-75
2021/09/13 07:08:40;;;;;;;0.10;0.10;;;17.80;99.90;;;;;;5072240;28;20024;-75
2021/09/13 07:11:07;;;;;;;0.10;0.10;;;18.00;99.90;;;;;;5073097;28;20427;-75
2021/09/13 07:13:33;;;;;;;0.10;0.10;;;18.00;99.90;;;;;;5073542;28;20503;-75
2021/09/13 07:15:59;;;;;;;0.10;0.10;;;18.00;99.90;;;;;;5055622;28;20556;-75
2021/09/13 07:18:27;;;;;;;0.20;0.20;;;18.10;99.90;;;;;;5073514;28;20203;-75
2021/09/13 07:20:52;;;;;;;0.10;0.10;;;18.20;99.90;;;;;;5072886;28;20492;-75
2021/09/13 07:23:18;;;;;;;0.10;0.10;;;18.30;99.90;;;;;;5038829;28;20047;-75
2021/09/13 07:25:44;;;;;;;0.10;0.10;;;18.40;99.90;;;;;;5055001;28;20074;-75
2021/09/13 07:28:10;;;;;;;0.10;0.10;;;18.30;99.90;;;;;;5057542;28;20044;-75
2021/09/13 07:30:36;;;;;;;0.10;0.10;;;18.50;99.90;;;;;;5073695;28;20064;-75
2021/09/13 07:33:02;;;;;;;0.10;0.10;;;18.50;99.90;;;;;;5038905;28;20048;-75
2021/09/13 07:35:27;;;;;;;0.10;0.10;;;18.50;99.90;;;;;;5072774;28;20032;-75
2021/09/13 07:37:54;;;;;;;0.10;0.10;;;18.60;99.90;;;;;;5039886;28;20031;-75
2021/09/13 07:40:20;;;;;;;0.10;0.10;;;18.80;99.90;;;;;;5072974;28;20024;-75
2021/09/13 07:42:45;;;;;;;0.10;0.10;;;18.70;99.90;;;;;;5057988;28;20044;-75
2021/09/13 07:45:11;;;;;;;0.10;0.10;;;18.80;99.90;;;;;;5073149;28;20119;-75
2021/09/13 07:47:37;;;;;;;0.10;0.10;;;18.80;99.90;;;;;;5059178;28;20024;-75
2021/09/13 07:50:05;;;;;;;0.10;0.10;;;18.90;99.90;;;;;;5055161;28;20024;-75
2021/09/13 07:52:30;;;;;;;0.10;0.10;;;18.90;99.90;;;;;;5072051;28;20485;-75
2021/09/13 07:54:56;;;;;;;0.10;0.10;;;19.00;99.90;;;;;;5054759;28;20071;-75
2021/09/13 07:57:22;;;;;;;0.10;0.10;;;19.10;99.90;;;;;;5072365;28;20379;-75
2021/09/13 07:59:48;;;;;;;0.10;0.10;;;19.20;99.90;;;;;;5073006;28;20032;-75
2021/09/13 08:02:13;;;;;;;0.10;0.10;;;19.20;99.90;;;;;;5058916;28;20027;-75
2021/09/13 08:04:40;;;;;;;0.10;0.10;;;19.20;99.90;;;;;;5037736;28;20039;-75
2021/09/13 08:07:06;;;;;;;0.10;0.10;;;19.10;99.90;;;;;;5071955;28;20077;-74
2021/09/13 08:09:32;;;;;;;0.13;0.13;;;19.10;99.90;;;;;;5072404;28;20091;-74
2021/09/13 08:11:58;;;;;;;0.20;0.20;;;19.20;99.90;;;;;;5071954;28;20472;-75
2021/09/13 08:14:24;;;;;;;0.10;0.10;;;19.20;99.90;;;;;;5072261;28;20036;-74
2021/09/13 08:16:51;;;;;;;0.20;0.20;;;19.30;99.90;;;;;;5054521;28;20073;-75
2021/09/13 08:19:17;;;;;;;0.10;0.10;;;19.40;99.90;;;;;;5072243;28;20029;-75
2021/09/13 08:21:44;;;;;;;0.10;0.10;;;19.60;99.90;;;;;;5037296;28;20063;-75
2021/09/13 08:24:11;;;;;;;0.30;0.30;;;19.70;99.90;;;;;;5054388;28;20023;-75
2021/09/13 08:26:39;;;;;;;28.90;12.82;;;19.70;99.90;;;;;;5071742;28;20021;-75
2021/09/13 08:29:06;;;;;;;0.10;0.10;;;19.80;99.90;;;;;;5072277;28;20116;-75
2021/09/13 08:31:32;;;;;;;0.10;0.10;;;20.00;99.90;;;;;;5054096;28;20103;-75
2021/09/13 08:33:58;;;;;;;0.45;0.30;;;20.30;99.90;;;;;;5057266;28;20116;-75
2021/09/13 08:36:24;;;;;;;0.63;0.63;;;20.50;99.90;;;;;;5071961;28;20103;-75
2021/09/13 08:38:49;;;;;;;0.10;0.10;;;20.80;99.90;;;;;;5054262;28;20044;-75
2021/09/13 08:41:15;;;;;;;0.00;0.00;;;21.20;99.90;;;;;;5071977;28;20024;-72
2021/09/13 08:43:43;;;;;;;0.20;0.20;;;21.50;99.90;;;;;;5055752;28;20030;-72
2021/09/13 08:46:17;;;;;;;0.30;0.30;;;21.70;99.90;;;;;;5053390;28;20020;-72
2021/09/13 08:48:48;;;;;;;0.30;0.30;;;21.90;99.90;;;;;;5053629;28;20377;-72
2021/09/13 08:53:48;;;;;;;0.10;0.10;;;22.00;99.90;;;;;;5071547;28;20028;-72
2021/09/13 08:56:16;;;;;;;0.25;0.10;;;22.10;99.90;;;;;;5053258;28;20036;-72
2021/09/13 08:58:43;;;;;;;3.13;0.68;;;22.00;99.90;;;;;;5071246;28;20036;-72
2021/09/13 09:01:10;;;;;;;0.35;0.35;;;22.10;99.90;;;;;;5037260;28;20492;-76
2021/09/13 09:03:37;;;;;;;0.25;0.25;;;22.30;99.90;;;;;;5036799;28;20025;-75
2021/09/13 09:06:03;;;;;;;3.20;1.45;;;22.40;99.90;;;;;;5032302;28;20028;-75
2021/09/13 09:08:38;;;;;;;0.35;0.35;;;22.70;99.90;;;;;;5057859;28;20031;-75
2021/09/13 09:11:06;;;;;;;0.10;0.10;;;22.80;99.90;;;;;;5053435;28;20516;-75
2021/09/13 09:13:43;;;;;;;0.55;0.55;;;22.60;99.90;;;;;;5071119;28;20036;-75
2021/09/13 09:16:14;;;;;;;0.10;0.10;;;22.50;99.90;;;;;;5071619;28;20473;-75
2021/09/13 09:18:45;;;;;;;0.10;0.10;;;22.30;99.90;;;;;;5071208;28;20081;-75
2021/09/13 09:21:25;;;;;;;0.10;0.10;;;22.40;99.90;;;;;;5070851;28;20448;-74
2021/09/13 09:24:04;;;;;;;0.20;0.20;;;22.50;99.90;;;;;;5053226;28;20477;-75
2021/09/13 09:26:31;;;;;;;0.00;0.00;;;22.90;98.90;;;;;;5066377;28;20025;-75
2021/09/13 09:28:59;;;;;;;1.33;0.47;;;23.20;97.70;;;;;;5052549;28;20565;-75
2021/09/13 09:31:34;;;;;;;0.10;0.10;;;23.60;97.20;;;;;;5052932;28;20515;-75
2021/09/13 09:34:12;;;;;;;0.10;0.10;;;24.20;95.40;;;;;;5038124;28;20081;-75
2021/09/13 09:36:37;;;;;;;1.65;1.45;;;24.60;92.40;;;;;;5052988;28;20032;-75
2021/09/13 09:39:14;;;;;;;0.20;0.20;;;24.80;91.20;;;;;;5052946;28;20365;-75
2021/09/13 09:41:44;;;;;;;0.28;0.28;;;25.20;87.40;;;;;;5053064;28;20025;-75
2021/09/13 09:44:10;;;;;;;0.10;0.10;;;25.10;88.50;;;;;;5070547;28;20043;-72
2021/09/13 09:46:40;;;;;;;17.73;0.77;;;25.50;85.80;;;;;;5036315;28;20028;-72
2021/09/13 09:49:11;;;;;;;0.00;0.00;;;25.70;81.20;;;;;;5052576;28;20037;-72
2021/09/13 09:51:38;;;;;;;;;;;26.00;80.20;;;;;;5053517;28;20105;-72
2021/09/13 09:54:14;;;;;;;0.10;0.10;;;26.50;76.90;;;;;;5070353;28;19908;-72
2021/09/13 09:56:43;;;;;;;0.00;0.00;;;26.40;77.80;;;;;;5070671;28;20032;-72
2021/09/13 09:59:10;;;;;;;0.68;0.68;;;26.80;76.70;;;;;;5070385;28;20095;-72
2021/09/13 10:01:39;;;;;;;0.32;0.32;;;26.60;74.30;;;;;;5052742;28;20029;-72
2021/09/13 10:04:20;;;;;;;0.55;0.28;;;26.80;75.30;;;;;;5052680;28;20036;-72
2021/09/13 10:06:49;;;;;;;3.23;1.10;;;26.70;74.20;;;;;;5052434;28;20163;-72
2021/09/13 10:09:16;;;;;;;1.08;0.75;;;26.80;74.60;;;;;;5055232;28;20029;-73
2021/09/13 10:11:42;;;;;;;0.90;0.85;;;26.90;73.30;;;;;;5070732;28;20032;-73
2021/09/13 10:14:10;;;;;;;0.50;0.32;;;26.60;72.90;;;;;;5052451;28;20021;-73
2021/09/13 10:16:38;;;;;;;0.13;0.13;;;26.40;74.60;;;;;;5052384;28;20032;-73
2021/09/13 10:19:04;;;;;;;0.00;0.00;;;26.60;73.00;;;;;;5069745;28;20565;-73
2021/09/13 10:21:30;;;;;;;0.55;0.55;;;27.20;72.10;;;;;;5052695;28;20078;-74
2021/09/13 10:23:57;;;;;;;0.15;0.13;;;27.60;71.50;;;;;;5052251;28;20029;-74
2021/09/13 10:26:23;;;;;;;2.40;1.60;;;27.40;70.40;;;;;;5035804;28;20081;-74
2021/09/13 10:29:01;;;;;;;0.10;0.10;;;27.30;68.70;;;;;;5035870;28;20020;-74
2021/09/13 10:31:42;;;;;;;1.38;0.43;;;27.30;70.00;;;;;;5052357;28;20052;-74
2021/09/13 10:34:43;;;;;;;0.60;0.55;;;27.40;68.90;;;;;;5069892;28;20484;-73
2021/09/13 10:37:34;;;;;;;1.23;0.15;;;27.00;70.90;;;;;;5066325;28;20118;-74
2021/09/13 10:40:02;;;;;;;0.10;0.10;;;27.90;68.60;;;;;;5058823;28;20116;-74
2021/09/13 10:42:43;;;;;;;0.10;0.10;;;28.50;67.20;;;;;;5066465;28;20029;-74
2021/09/13 10:45:31;;;;;;;0.00;0.00;;;28.90;65.00;;;;;;5039274;28;20021;-74
2021/09/13 10:47:57;;;;;;;0.85;0.82;;;28.40;65.10;;;;;;5074019;28;20037;-74
2021/09/13 10:50:45;;;;;;;0.00;0.00;;;28.10;66.10;;;;;;5056015;28;20028;-74
2021/09/13 10:53:17;;;;;;;0.32;0.32;;;27.90;66.50;;;;;;5053110;28;20035;-74
2021/09/13 10:55:48;;;;;;;0.00;0.00;;;27.50;66.70;;;;;;5073198;28;20033;-74
2021/09/13 10:58:19;;;;;;;0.00;0.00;;;27.20;69.40;;;;;;5056111;28;20033;-73
2021/09/13 11:00:45;;;;;;;0.30;0.20;;;27.80;67.90;;;;;;5073644;28;20037;-74
2021/09/13 11:03:31;;;;;;;0.40;0.40;;;28.00;66.60;;;;;;5074040;28;20078;-74
2021/09/13 11:06:06;;;;;;;0.10;0.10;;;28.10;65.20;;;;;;5070671;28;20557;-74
2021/09/13 11:08:35;;;;;;;0.55;0.55;;;28.20;63.80;;;;;;5055708;28;20502;-74
2021/09/13 11:11:01;;;;;;;3.15;2.15;;;28.30;65.20;;;;;;5072999;28;20120;-73
2021/09/13 11:13:27;;;;;;;0.73;0.73;;;28.30;64.70;;;;;;5056024;28;20067;-73
2021/09/13 11:15:53;;;;;;;1.55;0.30;;;28.60;64.20;;;;;;5073151;28;20078;-73
2021/09/13 11:18:41;;;;;;;0.00;0.00;;;28.90;64.10;;;;;;5055822;28;20028;-74
2021/09/13 11:21:26;;;;;;;0.65;0.55;;;29.60;62.70;;;;;;5072865;28;20055;-74
2021/09/13 11:23:56;;;;;;;0.20;0.20;;;29.70;62.10;;;;;;5073481;28;20013;-73
2021/09/13 11:26:42;;;;;;;0.50;0.47;;;29.20;61.60;;;;;;5056776;28;20036;-73
2021/09/13 11:29:25;;;;;;;0.30;0.25;;;28.80;63.20;;;;;;5055207;28;20526;-73
2021/09/13 11:31:52;;;;;;;0.32;0.32;;;28.80;63.80;;;;;;5071248;28;20435;-74
2021/09/13 11:34:19;;;;;;;0.25;0.10;;;28.80;63.80;;;;;;5073324;28;20031;-73
2021/09/13 11:36:53;;;;;;;0.43;0.38;;;28.40;63.40;;;;;;5059260;28;20021;-73
2021/09/13 11:39:19;;;;;;;0.30;0.30;;;28.00;65.70;;;;;;5055362;28;20029;-74
2021/09/13 11:41:54;;;;;;;0.20;0.20;;;27.40;66.70;;;;;;5038236;28;20106;-73
2021/09/13 11:44:20;;;;;;;0.10;0.10;;;27.00;67.90;;;;;;5073043;28;20021;-73
2021/09/13 11:47:06;;;;;;;0.10;0.10;;;26.50;69.40;;;;;;5054867;28;20031;-74
2021/09/13 11:49:37;;;;;;;1.00;0.65;;;26.30;69.30;;;;;;5055212;28;20484;-74
2021/09/13 11:52:09;;;;;;;;;;;26.40;69.50;;;;;;5051110;28;20029;-73
2021/09/13 11:54:39;;;;;;;;;;;26.70;69.10;;;;;;5072794;28;19918;-74
2021/09/13 11:57:18;;;;;;;0.28;0.22;;;27.40;68.20;;;;;;5054430;28;19919;-74
2021/09/13 11:59:53;;;;;;;0.00;0.00;;;27.80;67.40;;;;;;5072495;28;20052;-74
2021/09/13 12:02:20;;;;;;;0.00;0.00;;;28.20;65.80;;;;;;5072304;28;20103;-74
2021/09/13 12:04:45;;;;;;;4.03;1.27;;;28.40;64.00;;;;;;5045282;28;20021;-73
2021/09/13 12:07:12;;;;;;;0.00;0.00;;;28.30;64.40;;;;;;5051415;28;20029;-74
2021/09/13 12:09:41;;;;;;;0.22;0.22;;;28.30;65.00;;;;;;5072484;28;20028;-74
2021/09/13 12:12:11;;;;;;;0.77;0.63;;;28.70;63.50;;;;;;5071859;28;20039;-74
2021/09/13 12:14:39;;;;;;;1.45;0.60;;;28.40;63.80;;;;;;5072198;28;20093;-74
2021/09/13 12:17:14;;;;;;;2.17;1.67;;;28.20;63.00;;;;;;5071716;28;20477;-73
2021/09/13 12:19:50;;;;;;;0.40;0.35;;;28.10;64.50;;;;;;5072580;28;20031;-74
2021/09/13 12:22:17;;;;;;;0.10;0.10;;;28.30;63.20;;;;;;5056452;28;20108;-74
2021/09/13 12:24:45;;;;;;;1.67;1.23;;;28.40;61.70;;;;;;5049519;28;20017;-73
2021/09/13 12:27:13;;;;;;;0.05;0.05;;;27.30;65.70;;;;;;5053955;28;20488;-74
2021/09/13 12:30:05;;;;;;;0.45;0.45;;;27.30;66.50;;;;;;5037751;28;20051;-74
2021/09/13 12:32:35;;;;;;;0.00;0.00;;;27.40;65.50;;;;;;5055856;28;20543;-74
2021/09/13 12:35:04;;;;;;;0.10;0.10;;;27.20;67.80;;;;;;5071843;28;20086;-76
2021/09/13 12:37:38;;;;;;;0.20;0.20;;;27.40;66.80;;;;;;5055262;28;20047;-73
2021/09/13 12:40:13;;;;;;;0.30;0.30;;;27.20;67.10;;;;;;5071380;28;20079;-74
2021/09/13 12:42:53;;;;;;;5.60;1.10;;;27.20;68.80;;;;;;5071530;28;20104;-73
2021/09/13 12:45:28;;;;;;;0.00;0.00;;;27.20;67.40;;;;;;5071590;28;20025;-73
2021/09/13 12:47:55;;;;;;;0.00;0.00;;;26.80;68.10;;;;;;5070405;28;20020;-74
2021/09/13 12:50:39;;;;;;;0.65;0.65;;;27.00;67.70;;;;;;5071309;28;20020;-73
2021/09/13 12:53:11;;;;;;;0.00;0.00;;;27.30;65.20;;;;;;5069734;28;20107;-74
2021/09/13 12:55:42;;;;;;;0.20;0.20;;;27.50;64.60;;;;;;5070905;28;20099;-73
2021/09/13 12:58:30;;;;;;;0.40;0.40;;;27.00;66.50;;;;;;5053549;28;20142;-73